createdAt,value
2023-01-19T00:00:10.977Z,60.95
2023-01-19T00:05:15.033Z,62.33
2023-01-19T00:10:18.103Z,62.97
2023-01-19T00:15:20.756Z,62.09
2023-01-19T00:20:23.314Z,63.05
2023-01-19T00:25:25.891Z,63.57
2023-01-19T00:30:28.570Z,61.65
2023-01-19T00:35:31.177Z,60.83
2023-01-19T00:40:33.713Z,59.90
2023-01-19T00:45:36.620Z,60.18
2023-01-19T00:50:39.214Z,59.85
2023-01-19T00:55:41.836Z,59.97
2023-01-19T01:00:45.006Z,59.86
2023-01-19T01:05:47.584Z,59.82
2023-01-19T01:10:51.512Z,59.72
2023-01-19T01:15:55.182Z,60.16
2023-01-19T01:21:02.450Z,60.00
2023-01-19T01:26:05.855Z,60.08
2023-01-19T01:31:08.394Z,60.73
2023-01-19T01:36:12.203Z,61.41
2023-01-19T01:41:15.134Z,60.84
2023-01-19T01:46:18.462Z,60.74
2023-01-19T01:56:42.082Z,59.78
2023-01-19T02:02:04.695Z,60.74
2023-01-19T02:07:27.403Z,60.89
2023-01-19T02:12:49.905Z,59.91
2023-01-19T02:17:52.474Z,60.27
2023-01-19T02:22:57.396Z,60.34
2023-01-19T02:28:00.737Z,60.24
2023-01-19T02:33:03.875Z,60.92
2023-01-19T02:38:08.633Z,61.34
2023-01-19T02:43:11.489Z,60.97
2023-01-19T02:48:14.907Z,60.57
2023-01-19T02:58:50.452Z,62.56
2023-01-19T03:14:33.265Z,61.87
2023-01-19T03:19:41.133Z,62.16
2023-01-19T03:24:46.467Z,62.17
2023-01-19T03:29:54.067Z,61.91
2023-01-19T03:34:59.059Z,61.59
2023-01-19T03:40:01.720Z,62.85
2023-01-19T03:45:06.180Z,62.54
2023-01-19T03:50:15.273Z,62.71
2023-01-19T03:55:17.826Z,62.55
2023-01-19T04:00:20.592Z,63.60
2023-01-19T04:05:23.417Z,63.26
2023-01-19T04:10:26.026Z,62.92
2023-01-19T04:15:29.794Z,62.73
2023-01-19T04:20:33.992Z,62.51
2023-01-19T04:25:38.144Z,62.89
2023-01-19T04:30:41.627Z,63.00
2023-01-19T04:35:45.224Z,63.19
2023-01-19T04:40:49.550Z,62.49
2023-01-19T04:45:52.549Z,63.87
2023-01-19T04:50:55.230Z,62.85
2023-01-19T04:55:59.747Z,62.63
2023-01-19T05:01:02.285Z,62.89
2023-01-19T05:06:06.589Z,64.13
2023-01-19T05:11:09.151Z,64.55
2023-01-19T05:16:14.169Z,65.04
2023-01-19T05:21:16.805Z,64.87
2023-01-19T05:26:19.358Z,64.43
2023-01-19T05:31:24.798Z,65.17
2023-01-19T05:36:32.686Z,64.75
2023-01-19T05:41:35.942Z,64.63
2023-01-19T05:46:39.775Z,64.63
2023-01-19T05:51:45.722Z,64.44
2023-01-19T05:56:48.357Z,63.85
2023-01-19T06:01:52.278Z,64.21
2023-01-19T06:06:55.241Z,64.38
2023-01-19T06:11:59.699Z,63.58
2023-01-19T06:17:03.722Z,63.03
2023-01-19T06:22:06.682Z,63.24
2023-01-19T06:27:09.535Z,62.26
2023-01-19T06:32:12.175Z,62.29
2023-01-19T06:37:16.822Z,63.96
2023-01-19T06:47:39.317Z,63.15
2023-01-19T06:52:42.824Z,63.56
2023-01-19T06:57:45.656Z,62.98
2023-01-19T07:02:48.352Z,63.57
2023-01-19T07:07:53.656Z,62.42
2023-01-19T07:12:58.744Z,62.41
2023-01-19T07:18:05.711Z,62.33
2023-01-19T07:23:09.862Z,62.37
2023-01-19T07:28:15.747Z,62.14
2023-01-19T07:33:18.507Z,62.41
2023-01-19T07:38:21.466Z,63.10
2023-01-19T07:43:24.258Z,62.47
2023-01-19T07:48:27.735Z,62.75
2023-01-19T07:53:30.586Z,61.91
2023-01-19T07:58:33.234Z,61.53
2023-01-19T08:03:36.115Z,60.98
2023-01-19T08:08:38.861Z,61.16
2023-01-19T08:13:41.782Z,61.85
2023-01-19T08:18:44.366Z,61.49
2023-01-19T08:23:55.609Z,61.17
2023-01-19T08:29:01.060Z,61.20
2023-01-19T08:34:03.856Z,60.19
2023-01-19T08:39:06.453Z,60.16
2023-01-19T08:44:09.207Z,59.95
2023-01-19T08:49:12.316Z,58.98
2023-01-19T08:54:18.554Z,59.33
2023-01-19T08:59:22.013Z,58.61
2023-01-19T09:04:25.139Z,58.62
2023-01-19T09:09:28.899Z,58.97
2023-01-19T09:14:31.664Z,58.94
2023-01-19T09:19:36.786Z,58.70
2023-01-19T09:24:41.650Z,57.03
2023-01-19T09:29:52.350Z,56.86
2023-01-19T09:34:56.655Z,56.30
2023-01-19T09:40:00.258Z,56.31
2023-01-19T09:45:13.413Z,55.75
2023-01-19T09:50:32.055Z,55.81
2023-01-19T09:55:35.339Z,55.25
2023-01-19T10:00:53.930Z,54.36
2023-01-19T10:06:05.215Z,54.58
2023-01-19T10:11:22.947Z,54.58
2023-01-19T10:16:39.564Z,53.97
2023-01-19T10:22:27.665Z,53.06
2023-01-19T10:27:34.352Z,52.79
2023-01-19T10:32:39.215Z,51.90
2023-01-19T10:37:44.841Z,48.49
2023-01-19T10:42:47.579Z,51.50
2023-01-19T10:47:52.832Z,51.38
2023-01-19T10:52:58.745Z,51.20
2023-01-19T10:58:06.425Z,51.83
2023-01-19T11:08:36.534Z,50.97
2023-01-19T11:13:43.500Z,50.71
2023-01-19T11:18:47.649Z,50.49
2023-01-19T11:23:55.002Z,50.02
2023-01-19T11:29:01.341Z,48.85
2023-01-19T11:34:24.236Z,45.34
2023-01-19T11:39:32.884Z,46.55
2023-01-19T11:44:49.220Z,47.70
2023-01-19T11:50:20.060Z,47.62
2023-01-19T12:05:53.147Z,46.97
2023-01-19T12:11:00.148Z,47.48
2023-01-19T12:16:23.481Z,46.38
2023-01-19T12:21:27.349Z,45.99
2023-01-19T12:26:53.670Z,44.34
2023-01-19T12:42:46.079Z,40.98
2023-01-19T12:47:56.770Z,39.78
2023-01-19T12:53:02.820Z,40.15
2023-01-19T12:58:17.962Z,39.71
2023-01-19T13:08:56.798Z,38.46
2023-01-19T13:19:18.437Z,40.02
2023-01-19T13:24:23.282Z,40.61
2023-01-19T13:39:54.336Z,43.46
2023-01-19T13:45:01.271Z,44.59
2023-01-19T13:50:06.432Z,45.68
2023-01-19T13:55:14.456Z,46.87
2023-01-19T14:00:22.163Z,47.76
2023-01-19T14:10:39.504Z,48.37
2023-01-19T14:15:43.385Z,48.92
2023-01-19T14:21:07.980Z,49.77
2023-01-19T14:32:13.950Z,51.31
2023-01-19T14:48:18.146Z,52.94
2023-01-19T14:53:25.726Z,53.90
2023-01-19T14:58:31.791Z,53.53
2023-01-19T15:03:49.289Z,53.44
2023-01-19T15:08:53.838Z,53.08
2023-01-19T15:13:56.926Z,54.88
2023-01-19T15:18:59.616Z,56.07
2023-01-19T15:24:02.270Z,55.36
2023-01-19T15:29:26.268Z,54.91
2023-01-19T15:34:29.107Z,55.46
2023-01-19T15:39:32.430Z,55.73
2023-01-19T15:44:34.988Z,56.77
2023-01-19T15:49:37.946Z,56.67
2023-01-19T15:54:40.498Z,58.00
2023-01-19T15:59:43.131Z,58.79
2023-01-19T16:04:49.585Z,58.81
2023-01-19T16:09:52.128Z,58.87
2023-01-19T16:14:57.147Z,59.11
2023-01-19T16:19:59.891Z,58.57
2023-01-19T16:25:02.919Z,59.13
2023-01-19T16:30:06.204Z,59.47
2023-01-19T16:35:09.009Z,60.26
2023-01-19T16:40:12.335Z,60.26
2023-01-19T16:45:15.611Z,59.95
2023-01-19T16:50:19.050Z,60.17
2023-01-19T16:55:24.279Z,59.36
2023-01-19T17:00:26.943Z,58.99
2023-01-19T17:05:29.596Z,59.77
2023-01-19T17:10:36.688Z,59.42
2023-01-19T17:15:39.600Z,58.81
2023-01-19T17:20:43.260Z,59.15
2023-01-19T17:25:55.949Z,60.00
2023-01-19T17:31:06.785Z,59.13
2023-01-19T17:36:13.432Z,60.38
2023-01-19T17:41:20.563Z,59.38
2023-01-19T17:46:25.802Z,60.62
2023-01-19T17:51:29.637Z,60.70
2023-01-19T17:56:36.745Z,59.41
2023-01-19T18:01:40.781Z,59.84
2023-01-19T18:06:43.490Z,58.68
2023-01-19T18:11:47.086Z,59.11
2023-01-19T18:16:51.248Z,58.61
2023-01-19T18:21:53.974Z,59.80
2023-01-19T18:26:58.625Z,59.83
2023-01-19T18:32:01.795Z,59.12
2023-01-19T18:37:04.790Z,59.12
2023-01-19T18:42:08.060Z,59.78
2023-01-19T18:47:13.221Z,60.01
2023-01-19T18:52:15.845Z,58.97
2023-01-19T18:57:18.451Z,59.92
2023-01-19T19:02:21.120Z,59.16
2023-01-19T19:07:24.012Z,59.22
2023-01-19T19:12:26.650Z,60.01
2023-01-19T19:17:30.511Z,59.97
2023-01-19T19:22:33.099Z,60.47
2023-01-19T19:27:37.071Z,59.62
2023-01-19T19:32:40.593Z,61.16
2023-01-19T19:37:44.363Z,61.62
2023-01-19T19:42:46.924Z,61.60
2023-01-19T19:47:51.083Z,61.59
2023-01-19T19:52:58.836Z,60.84
2023-01-19T19:58:01.867Z,61.62
2023-01-19T20:03:04.668Z,61.40
2023-01-19T20:08:07.381Z,61.18
2023-01-19T20:13:09.989Z,60.54
2023-01-19T20:18:12.784Z,61.23
2023-01-19T20:23:16.455Z,62.80
2023-01-19T20:28:19.483Z,62.69
2023-01-19T20:33:22.290Z,61.87
2023-01-19T20:38:24.884Z,61.38
2023-01-19T20:43:28.579Z,62.00
2023-01-19T20:48:31.932Z,61.81
2023-01-19T20:53:36.708Z,62.51
2023-01-19T20:58:39.901Z,63.70
2023-01-19T21:03:42.680Z,63.65
2023-01-19T21:08:45.301Z,61.37
2023-01-19T21:13:48.807Z,62.60
2023-01-19T21:19:02.124Z,60.96
2023-01-19T21:24:05.308Z,62.28
2023-01-19T21:29:13.441Z,62.75
2023-01-19T21:34:16.957Z,62.14
2023-01-19T21:39:19.544Z,61.96
2023-01-19T21:44:22.267Z,61.42
2023-01-19T21:49:24.898Z,61.96
2023-01-19T21:54:27.764Z,61.57
2023-01-19T21:59:30.354Z,61.79
2023-01-19T22:04:33.175Z,61.53
2023-01-19T22:09:36.671Z,60.86
2023-01-19T22:14:39.287Z,61.46
2023-01-19T22:19:42.027Z,62.29
2023-01-19T22:24:46.801Z,62.25
2023-01-19T22:29:49.440Z,62.39
2023-01-19T22:34:52.049Z,61.14
2023-01-19T22:39:54.883Z,61.23
2023-01-19T22:44:57.499Z,61.96
2023-01-19T22:50:00.068Z,60.78
2023-01-19T22:55:02.685Z,60.42
2023-01-19T23:00:08.785Z,60.27
2023-01-19T23:05:11.513Z,60.79
2023-01-19T23:10:14.412Z,60.95
2023-01-19T23:15:16.961Z,60.78
2023-01-19T23:20:20.712Z,61.13
2023-01-19T23:25:23.300Z,61.13
2023-01-19T23:30:26.016Z,61.20
2023-01-19T23:35:28.825Z,60.87
2023-01-19T23:40:31.418Z,59.52
2023-01-19T23:45:35.444Z,60.25
2023-01-19T23:50:40.761Z,61.97
2023-01-19T23:55:43.391Z,60.19
